createdAt,value
2022-11-18T00:01:31.651Z,95532.75
2022-11-18T00:04:01.805Z,95518.75
2022-11-18T00:06:31.045Z,95510.69
2022-11-18T00:09:00.411Z,95505.59
2022-11-18T00:11:49.132Z,95503.94
2022-11-18T00:14:23.243Z,95498.69
2022-11-18T00:16:55.275Z,95507.41
2022-11-18T00:19:27.044Z,95509.03
2022-11-18T00:21:56.507Z,95497.84
2022-11-18T00:24:25.943Z,95484.69
2022-11-18T00:26:54.759Z,95484.69
2022-11-18T00:29:24.052Z,95491.78
2022-11-18T00:31:52.860Z,95497.84
2022-11-18T00:34:21.412Z,95490.78
2022-11-18T00:36:51.420Z,95490.59
2022-11-18T00:39:21.400Z,95494.22
2022-11-18T00:42:08.266Z,95486.31
2022-11-18T00:44:36.954Z,95477.78
2022-11-18T00:47:06.035Z,95480.59
2022-11-18T00:49:34.543Z,95478.59
2022-11-18T00:52:05.527Z,95470.53
2022-11-18T00:54:34.065Z,95468.06
2022-11-18T00:57:04.137Z,95465.44
2022-11-18T00:59:32.675Z,95462.78
2022-11-18T01:02:01.186Z,95463.78
2022-11-18T01:04:29.885Z,95465.59
2022-11-18T01:06:58.511Z,95469.06
2022-11-18T01:09:28.453Z,95469.22
2022-11-18T01:12:14.408Z,95470.06
2022-11-18T01:14:43.000Z,95461.16
2022-11-18T01:17:11.536Z,95469.06
2022-11-18T01:19:40.081Z,95463.97
2022-11-18T01:22:08.713Z,95460.34
2022-11-18T01:24:38.567Z,95470.06
2022-11-18T01:27:07.163Z,95460.50
2022-11-18T01:29:35.702Z,95455.25
2022-11-18T01:34:52.779Z,95447.34
2022-11-18T01:37:21.453Z,95447.34
2022-11-18T01:39:51.329Z,95449.97
2022-11-18T01:42:19.816Z,95450.97
2022-11-18T01:45:09.618Z,95450.97
2022-11-18T01:47:42.576Z,95451.97
2022-11-18T01:50:11.730Z,95458.88
2022-11-18T01:52:41.231Z,95464.13
2022-11-18T01:55:14.685Z,95472.03
2022-11-18T01:57:43.476Z,95488.00
2022-11-18T02:00:13.456Z,95485.22
2022-11-18T02:02:41.971Z,95488.00
2022-11-18T02:05:12.032Z,95482.09
2022-11-18T02:07:43.095Z,95489.81
2022-11-18T02:10:21.052Z,95487.19
2022-11-18T02:12:50.580Z,95488.34
2022-11-18T02:15:21.187Z,95492.63
2022-11-18T02:17:54.020Z,95494.28
2022-11-18T02:20:37.194Z,95494.09
2022-11-18T02:23:38.493Z,95492.47
2022-11-18T02:26:39.804Z,95491.63
2022-11-18T02:29:11.452Z,95492.47
2022-11-18T02:31:47.371Z,95489.81
2022-11-18T02:34:22.016Z,95489.81
2022-11-18T02:36:53.976Z,95485.38
2022-11-18T02:39:24.844Z,95490.00
2022-11-18T02:41:55.169Z,95483.91
2022-11-18T02:44:26.386Z,95501.34
2022-11-18T02:46:59.321Z,95498.56
2022-11-18T02:49:34.934Z,95499.72
2022-11-18T02:52:03.928Z,95496.09
2022-11-18T02:54:34.133Z,95497.06
2022-11-18T02:57:03.561Z,95492.63
2022-11-18T02:59:33.487Z,95496.09
2022-11-18T03:02:02.124Z,95483.91
2022-11-18T03:04:31.814Z,95487.38
2022-11-18T03:07:05.713Z,95497.06
2022-11-18T03:09:36.625Z,95490.00
2022-11-18T03:12:18.678Z,95482.91
2022-11-18T03:14:53.606Z,95490.00
2022-11-18T03:17:26.994Z,95490.81
2022-11-18T03:20:06.801Z,95489.19
2022-11-18T03:22:38.740Z,95489.19
2022-11-18T03:25:09.272Z,95491.81
2022-11-18T03:27:41.005Z,95491.81
2022-11-18T03:30:14.758Z,95490.16
2022-11-18T03:32:45.654Z,95491.97
2022-11-18T03:35:17.186Z,95493.63
2022-11-18T03:37:46.019Z,95497.06
2022-11-18T03:40:19.168Z,95494.63
2022-11-18T03:42:51.167Z,95499.88
2022-11-18T03:45:25.785Z,95508.59
2022-11-18T03:47:57.290Z,95503.34
2022-11-18T03:50:28.171Z,95507.63
2022-11-18T03:52:56.877Z,95516.50
2022-11-18T03:55:28.256Z,95517.53
2022-11-18T03:57:59.877Z,95517.53
2022-11-18T04:00:33.795Z,95516.50
2022-11-18T04:03:02.374Z,95509.81
2022-11-18T04:05:32.412Z,95522.59
2022-11-18T04:08:03.254Z,95516.72
2022-11-18T04:10:34.919Z,95527.03
2022-11-18T04:13:07.114Z,95530.69
2022-11-18T04:15:40.168Z,95530.69
2022-11-18T04:18:09.735Z,95525.44
2022-11-18T04:20:38.798Z,95529.88
2022-11-18T04:23:08.214Z,95523.78
2022-11-18T04:25:36.805Z,95531.50
2022-11-18T04:28:05.730Z,95535.97
2022-11-18T04:30:34.960Z,95533.34
2022-11-18T04:33:05.218Z,95530.69
2022-11-18T04:35:33.753Z,95530.69
2022-11-18T04:38:03.647Z,95542.03
2022-11-18T04:40:33.278Z,95534.31
2022-11-18T04:43:01.759Z,95529.88
2022-11-18T04:45:30.327Z,95527.25
2022-11-18T04:48:03.342Z,95528.06
2022-11-18T04:50:33.717Z,95525.59
2022-11-18T04:53:02.244Z,95525.59
2022-11-18T04:55:30.731Z,95526.44
2022-11-18T04:57:59.216Z,95522.97
2022-11-18T05:00:27.688Z,95511.63
2022-11-18T05:02:57.495Z,95509.81
2022-11-18T05:05:26.005Z,95513.25
2022-11-18T05:07:55.976Z,95514.25
2022-11-18T05:10:24.467Z,95515.88
2022-11-18T05:12:52.566Z,95509.81
2022-11-18T05:15:23.995Z,95512.44
2022-11-18T05:17:52.615Z,95514.25
2022-11-18T05:20:21.564Z,95507.34
2022-11-18T05:22:50.114Z,95517.88
2022-11-18T05:25:20.583Z,95512.59
2022-11-18T05:27:49.156Z,95517.88
2022-11-18T05:30:17.743Z,95513.44
2022-11-18T05:32:46.257Z,95517.06
2022-11-18T05:35:14.960Z,95517.88
2022-11-18T05:37:43.542Z,95520.50
2022-11-18T05:40:12.588Z,95517.88
2022-11-18T05:42:59.919Z,95521.50
2022-11-18T05:45:28.396Z,95529.41
2022-11-18T05:48:04.429Z,95527.75
2022-11-18T05:50:35.113Z,95529.56
2022-11-18T05:53:04.575Z,95529.41
2022-11-18T05:55:37.085Z,95529.41
2022-11-18T05:58:06.896Z,95533.84
2022-11-18T06:00:35.665Z,95539.94
2022-11-18T06:03:06.011Z,95544.22
2022-11-18T06:05:34.590Z,95545.38
2022-11-18T06:08:03.481Z,95538.28
2022-11-18T06:10:34.369Z,95542.75
2022-11-18T06:13:07.812Z,95546.38
2022-11-18T06:15:39.050Z,95549.81
2022-11-18T06:18:10.223Z,95553.44
2022-11-18T06:20:40.547Z,95548.00
2022-11-18T06:23:09.010Z,95568.25
2022-11-18T06:25:38.812Z,95561.34
2022-11-18T06:28:10.973Z,95570.06
2022-11-18T06:30:39.939Z,95576.16
2022-11-18T06:33:08.876Z,95574.34
2022-11-18T06:35:37.378Z,95580.59
2022-11-18T06:38:05.929Z,95584.06
2022-11-18T06:40:35.213Z,95581.41
2022-11-18T06:43:26.121Z,95593.59
2022-11-18T06:46:09.518Z,95595.56
2022-11-18T06:48:38.865Z,95586.03
2022-11-18T06:51:08.114Z,95600.03
2022-11-18T06:53:36.850Z,95596.56
2022-11-18T06:56:05.877Z,95611.38
2022-11-18T06:58:35.872Z,95612.19
2022-11-18T07:01:11.647Z,95609.56
2022-11-18T07:03:40.850Z,95607.94
2022-11-18T07:06:10.580Z,95619.28
2022-11-18T07:08:40.700Z,95629.00
2022-11-18T07:11:10.984Z,95630.81
2022-11-18T07:13:43.714Z,95635.41
2022-11-18T07:16:14.464Z,95637.06
2022-11-18T07:18:43.971Z,95636.06
2022-11-18T07:21:14.235Z,95639.03
2022-11-18T07:23:42.973Z,95634.44
2022-11-18T07:26:11.724Z,95647.75
2022-11-18T07:28:41.583Z,95652.88
2022-11-18T07:31:11.736Z,95648.59
2022-11-18T07:33:41.800Z,95663.06
2022-11-18T07:36:12.128Z,95664.72
2022-11-18T07:38:43.035Z,95664.88
2022-11-18T07:41:13.368Z,95675.25
2022-11-18T07:43:43.641Z,95676.25
2022-11-18T07:46:17.400Z,95676.25
2022-11-18T07:48:48.277Z,95681.50
2022-11-18T07:51:18.010Z,95684.13
2022-11-18T07:53:47.244Z,95691.88
2022-11-18T07:56:17.249Z,95691.06
2022-11-18T07:58:47.427Z,95702.56
2022-11-18T08:01:17.659Z,95697.63
2022-11-18T08:03:47.740Z,95703.72
2022-11-18T08:06:17.843Z,95706.38
2022-11-18T08:08:46.989Z,95703.72
2022-11-18T08:11:21.856Z,95708.34
2022-11-18T08:13:53.831Z,95713.78
2022-11-18T08:16:23.648Z,95719.38
2022-11-18T08:18:53.072Z,95722.97
2022-11-18T08:21:23.182Z,95725.63
2022-11-18T08:23:52.257Z,95726.28
2022-11-18T08:26:21.093Z,95723.97
2022-11-18T08:28:49.935Z,95734.66
2022-11-18T08:31:21.515Z,95732.53
2022-11-18T08:33:50.005Z,95732.19
2022-11-18T08:36:20.415Z,95734.19
2022-11-18T08:38:49.382Z,95740.44
2022-11-18T08:41:19.586Z,95739.28
2022-11-18T08:43:48.123Z,95747.00
2022-11-18T08:46:16.647Z,95747.19
2022-11-18T08:48:46.577Z,95749.66
2022-11-18T08:51:15.734Z,95748.16
2022-11-18T08:53:44.786Z,95753.09
2022-11-18T08:56:16.213Z,95747.66
2022-11-18T08:58:45.209Z,95748.00
2022-11-18T09:01:13.816Z,95759.19
2022-11-18T09:03:42.533Z,95756.38
2022-11-18T09:06:14.255Z,95761.66
2022-11-18T09:08:43.127Z,95759.84
2022-11-18T09:11:12.783Z,95766.59
2022-11-18T09:16:31.748Z,95760.19
2022-11-18T09:19:18.148Z,95780.25
2022-11-18T09:21:50.570Z,95781.41
2022-11-18T09:24:19.295Z,95776.78
2022-11-18T09:26:48.169Z,95791.44
2022-11-18T09:29:16.858Z,95784.03
2022-11-18T09:31:45.340Z,95789.47
2022-11-18T09:34:13.820Z,95794.06
2022-11-18T09:36:42.325Z,95799.50
2022-11-18T09:39:12.196Z,95792.75
2022-11-18T09:41:46.987Z,95792.59
2022-11-18T09:44:26.284Z,95798.69
2022-11-18T09:47:01.289Z,95802.97
2022-11-18T09:49:32.178Z,95799.66
2022-11-18T09:52:04.236Z,95801.31
2022-11-18T09:54:36.089Z,95796.72
2022-11-18T09:57:11.906Z,95809.38
2022-11-18T09:59:40.577Z,95810.22
2022-11-18T10:02:35.423Z,95813.50
2022-11-18T10:05:15.053Z,95810.88
2022-11-18T10:07:50.658Z,95816.47
2022-11-18T10:10:24.376Z,95816.28
2022-11-18T10:12:57.638Z,95818.28
2022-11-18T10:15:31.009Z,95812.50
2022-11-18T10:18:05.108Z,95816.13
2022-11-18T10:20:40.952Z,95813.00
2022-11-18T10:23:15.813Z,95823.22
2022-11-18T10:25:45.815Z,95820.56
2022-11-18T10:28:23.731Z,95819.44
2022-11-18T10:30:53.596Z,95817.78
2022-11-18T10:33:27.004Z,95827.16
2022-11-18T10:36:28.096Z,95823.72
2022-11-18T10:39:10.703Z,95826.00
2022-11-18T10:41:51.323Z,95817.13
2022-11-18T10:44:31.574Z,95825.84
2022-11-18T10:47:26.735Z,95818.94
2022-11-18T10:49:57.206Z,95820.59
2022-11-18T10:52:26.213Z,95817.13
2022-11-18T10:55:20.903Z,95826.66
2022-11-18T10:57:52.448Z,95817.78
2022-11-18T11:00:41.356Z,95824.03
2022-11-18T11:03:27.522Z,95826.66
2022-11-18T11:06:24.674Z,95825.53
2022-11-18T11:08:54.997Z,95825.84
2022-11-18T11:11:26.561Z,95827.50
2022-11-18T11:14:02.800Z,95826.84
2022-11-18T11:16:31.957Z,95831.28
2022-11-18T11:19:02.138Z,95832.09
2022-11-18T11:21:31.167Z,95827.31
2022-11-18T11:23:59.779Z,95832.09
2022-11-18T11:29:35.112Z,95834.75
2022-11-18T11:32:11.638Z,95833.91
2022-11-18T11:34:45.013Z,95841.66
2022-11-18T11:37:21.356Z,95840.00
2022-11-18T11:40:13.510Z,95844.44
2022-11-18T11:42:48.621Z,95838.19
2022-11-18T11:45:25.756Z,95837.03
2022-11-18T11:48:14.861Z,95846.75
2022-11-18T11:51:02.006Z,95850.03
2022-11-18T11:53:56.940Z,95843.47
2022-11-18T11:56:28.447Z,95847.91
2022-11-18T11:59:18.406Z,95837.53
2022-11-18T12:01:58.955Z,95844.44
2022-11-18T12:04:39.077Z,95843.78
2022-11-18T12:07:08.780Z,95850.53
2022-11-18T12:09:51.698Z,95854.97
2022-11-18T12:12:38.201Z,95849.88
2022-11-18T12:15:20.543Z,95852.00
2022-11-18T12:17:57.280Z,95850.69
2022-11-18T12:20:41.654Z,95858.59
2022-11-18T12:23:12.451Z,95854.47
2022-11-18T12:26:08.811Z,95858.94
2022-11-18T12:28:41.255Z,95856.94
2022-11-18T12:31:31.891Z,95858.59
2022-11-18T12:34:03.671Z,95860.25
2022-11-18T12:36:35.462Z,95865.50
2022-11-18T12:39:40.731Z,95866.50
2022-11-18T12:42:56.854Z,95859.59
2022-11-18T12:46:01.860Z,95867.50
2022-11-18T12:48:41.102Z,95864.34
2022-11-18T12:51:44.911Z,95867.31
2022-11-18T12:54:32.580Z,95870.94
2022-11-18T12:57:03.380Z,95867.47
2022-11-18T12:59:34.289Z,95875.22
2022-11-18T13:02:04.499Z,95875.38
2022-11-18T13:04:33.157Z,95867.31
2022-11-18T13:07:02.644Z,95877.84
2022-11-18T13:09:35.867Z,95881.47
2022-11-18T13:12:08.665Z,95874.06
2022-11-18T13:14:58.896Z,95876.38
2022-11-18T13:17:47.582Z,95874.88
2022-11-18T13:20:24.471Z,95879.97
2022-11-18T13:23:10.882Z,95877.50
2022-11-18T13:25:42.599Z,95884.56
2022-11-18T13:28:20.283Z,95883.09
2022-11-18T13:30:53.907Z,95880.63
2022-11-18T13:33:22.679Z,95885.75
2022-11-18T13:35:51.147Z,95887.56
2022-11-18T13:38:27.729Z,95881.94
2022-11-18T13:41:08.271Z,95886.38
2022-11-18T13:43:37.027Z,95890.34
2022-11-18T13:46:08.227Z,95895.44
2022-11-18T13:48:38.606Z,95894.47
2022-11-18T13:51:07.306Z,95898.72
2022-11-18T13:53:38.490Z,95888.34
2022-11-18T13:56:17.211Z,95894.63
2022-11-18T14:01:36.350Z,95895.44
2022-11-18T14:04:05.944Z,95898.09
2022-11-18T14:06:35.722Z,95898.91
2022-11-18T14:09:07.221Z,95899.22
2022-11-18T14:11:38.841Z,95899.06
2022-11-18T14:14:07.823Z,95898.91
2022-11-18T14:16:37.568Z,95903.66
2022-11-18T14:19:06.841Z,95904.50
2022-11-18T14:21:38.199Z,95900.88
2022-11-18T14:24:07.044Z,95912.22
2022-11-18T14:26:38.448Z,95913.38
2022-11-18T14:29:21.031Z,95908.28
2022-11-18T14:32:05.825Z,95916.69
2022-11-18T14:34:34.276Z,95919.47
2022-11-18T14:37:03.890Z,95913.88
2022-11-18T14:39:33.743Z,95917.19
2022-11-18T14:42:05.670Z,95920.81
2022-11-18T14:44:34.385Z,95919.81
2022-11-18T14:47:05.708Z,95924.09
2022-11-18T14:49:34.148Z,95918.81
2022-11-18T14:52:04.521Z,95929.53
2022-11-18T14:54:33.442Z,95926.88
2022-11-18T14:57:05.675Z,95930.50
2022-11-18T14:59:34.187Z,95934.44
2022-11-18T15:02:02.751Z,95930.81
2022-11-18T15:04:32.285Z,95933.63
2022-11-18T15:07:01.046Z,95940.03
2022-11-18T15:09:29.615Z,95934.44
2022-11-18T15:11:58.087Z,95939.72
2022-11-18T15:14:28.030Z,95942.34
2022-11-18T15:16:56.484Z,95946.13
2022-11-18T15:19:24.997Z,95953.84
2022-11-18T15:21:53.499Z,95952.06
2022-11-18T15:24:21.956Z,95959.94
2022-11-18T15:26:50.747Z,95962.59
2022-11-18T15:29:20.662Z,95964.06
2022-11-18T15:31:50.888Z,95961.75
2022-11-18T15:34:21.772Z,95958.63
2022-11-18T15:36:50.672Z,95959.13
2022-11-18T15:39:19.412Z,95958.31
2022-11-18T15:41:47.881Z,95959.94
2022-11-18T15:44:17.354Z,95957.47
2022-11-18T15:46:47.889Z,95958.97
2022-11-18T15:49:18.815Z,95964.22
2022-11-18T15:51:47.551Z,95967.19
2022-11-18T15:54:16.237Z,95968.84
2022-11-18T15:56:44.915Z,95967.69
2022-11-18T15:59:14.732Z,95971.16
2022-11-18T16:01:44.695Z,95973.13
2022-11-18T16:04:15.959Z,95978.53
2022-11-18T16:06:46.019Z,95978.69
2022-11-18T16:09:15.557Z,95985.47
2022-11-18T16:12:01.811Z,95976.56
2022-11-18T16:14:30.452Z,95981.69
2022-11-18T16:16:59.125Z,95989.56
2022-11-18T16:19:31.386Z,95994.19
2022-11-18T16:22:01.350Z,95991.53
2022-11-18T16:24:30.344Z,95993.03
2022-11-18T16:26:58.991Z,95998.78
2022-11-18T16:29:27.576Z,95997.63
2022-11-18T16:31:55.162Z,96005.53
2022-11-18T16:34:25.906Z,96003.06
2022-11-18T16:36:55.898Z,96007.34
2022-11-18T16:39:27.347Z,96005.69
2022-11-18T16:42:02.098Z,96009.97
2022-11-18T16:44:35.309Z,96016.22
2022-11-18T16:47:08.980Z,96011.28
2022-11-18T16:49:39.202Z,96016.22
2022-11-18T16:52:08.306Z,96020.81
2022-11-18T16:54:44.227Z,96025.09
2022-11-18T16:57:14.213Z,96032.34
2022-11-18T16:59:42.961Z,96035.63
2022-11-18T17:02:12.906Z,96035.63
2022-11-18T17:04:41.737Z,96041.41
2022-11-18T17:07:10.298Z,96036.63
2022-11-18T17:09:40.575Z,96043.03
2022-11-18T17:12:09.288Z,96044.00
2022-11-18T17:14:38.525Z,96037.75
2022-11-18T17:17:07.407Z,96035.94
2022-11-18T17:19:36.616Z,96041.22
2022-11-18T17:22:05.603Z,96044.22
2022-11-18T17:24:34.193Z,96041.06
2022-11-18T17:27:07.577Z,96045.66
2022-11-18T17:29:36.196Z,96048.66
2022-11-18T17:32:05.131Z,96043.22
2022-11-18T17:34:33.984Z,96044.88
2022-11-18T17:37:06.795Z,96058.03
2022-11-18T17:39:36.284Z,96048.50
2022-11-18T17:42:17.746Z,96048.50
2022-11-18T17:44:46.706Z,96054.75
2022-11-18T17:47:15.475Z,96057.38
2022-11-18T17:49:44.165Z,96056.53
2022-11-18T17:52:12.823Z,96060.97
2022-11-18T17:54:41.500Z,96054.38
2022-11-18T17:57:11.607Z,96058.00
2022-11-18T17:59:40.462Z,96053.25
2022-11-18T18:02:11.182Z,96068.88
2022-11-18T18:04:39.852Z,96076.63
2022-11-18T18:07:08.786Z,96082.66
2022-11-18T18:09:37.954Z,96075.09
2022-11-18T18:12:27.268Z,96087.56
2022-11-18T18:14:56.339Z,96090.31
2022-11-18T18:17:25.020Z,96091.59
2022-11-18T18:19:54.073Z,96098.38
2022-11-18T18:22:22.673Z,96098.22
2022-11-18T18:24:51.322Z,96106.78
2022-11-18T18:27:19.835Z,96103.00
2022-11-18T18:29:48.488Z,96095.06
2022-11-18T18:32:18.535Z,96100.91
2022-11-18T18:34:47.027Z,96094.59
2022-11-18T18:37:15.766Z,96094.59
2022-11-18T18:39:45.469Z,96106.25
2022-11-18T18:42:13.999Z,96105.44
2022-11-18T18:45:00.050Z,96101.81
2022-11-18T18:47:30.213Z,96111.22
2022-11-18T18:49:59.185Z,96108.75
2022-11-18T18:52:28.601Z,96111.16
2022-11-18T18:54:57.107Z,96116.44
2022-11-18T18:57:25.797Z,96108.22
2022-11-18T18:59:54.517Z,96121.16
2022-11-18T19:02:23.337Z,96116.13
2022-11-18T19:04:55.747Z,96118.59
2022-11-18T19:07:24.436Z,96125.06
2022-11-18T19:09:53.120Z,96135.94
2022-11-18T19:12:39.158Z,96138.28
2022-11-18T19:15:08.548Z,96128.03
2022-11-18T19:17:37.337Z,96134.81
2022-11-18T19:20:26.326Z,96132.84
2022-11-18T19:22:54.885Z,96136.63
2022-11-18T19:25:23.446Z,96142.19
2022-11-18T19:27:52.128Z,96144.66
2022-11-18T19:30:20.978Z,96148.97
2022-11-18T19:32:50.587Z,96144.66
2022-11-18T19:35:20.734Z,96155.88
2022-11-18T19:37:49.596Z,96155.88
2022-11-18T19:40:20.316Z,96154.06
2022-11-18T19:42:50.093Z,96157.00
2022-11-18T19:45:19.639Z,96157.69
2022-11-18T19:47:48.278Z,96160.63
2022-11-18T19:50:17.673Z,96168.06
2022-11-18T19:52:50.012Z,96164.59
2022-11-18T19:55:18.554Z,96161.97
2022-11-18T19:57:47.103Z,96171.50
2022-11-18T20:00:17.177Z,96169.88
2022-11-18T20:02:45.854Z,96167.06
2022-11-18T20:05:31.988Z,96171.66
2022-11-18T20:08:02.003Z,96171.00
2022-11-18T20:10:30.860Z,96169.03
2022-11-18T20:12:59.863Z,96179.56
2022-11-18T20:15:28.707Z,96179.03
2022-11-18T20:17:57.320Z,96181.38
2022-11-18T20:20:26.023Z,96175.28
2022-11-18T20:22:55.040Z,96175.28
2022-11-18T20:25:25.357Z,96183.03
2022-11-18T20:27:54.035Z,96182.03
2022-11-18T20:30:22.791Z,96186.47
2022-11-18T20:32:51.878Z,96189.13
2022-11-18T20:35:20.346Z,96190.09
2022-11-18T20:37:48.916Z,96188.28
2022-11-18T20:40:17.956Z,96184.31
2022-11-18T20:43:05.904Z,96182.34
2022-11-18T20:45:34.486Z,96186.78
2022-11-18T20:48:03.127Z,96192.50
2022-11-18T20:50:31.651Z,96194.84
2022-11-18T20:53:00.307Z,96187.72
2022-11-18T20:55:29.260Z,96195.44
2022-11-18T20:57:59.421Z,96195.16
2022-11-18T21:00:28.175Z,96196.72
2022-11-18T21:02:57.345Z,96190.78
2022-11-18T21:05:25.982Z,96196.50
2022-11-18T21:07:55.130Z,96197.19
2022-11-18T21:10:23.623Z,96189.28
2022-11-18T21:13:09.826Z,96198.53
2022-11-18T21:15:40.664Z,96204.47
2022-11-18T21:18:09.307Z,96196.56
2022-11-18T21:21:01.173Z,96204.31
2022-11-18T21:23:29.806Z,96204.63
2022-11-18T21:25:58.321Z,96204.63
2022-11-18T21:28:28.718Z,96204.72
2022-11-18T21:30:58.638Z,96209.28
2022-11-18T21:33:27.215Z,96213.59
2022-11-18T21:35:59.310Z,96218.53
2022-11-18T21:38:28.086Z,96219.00
2022-11-18T21:40:56.607Z,96226.06
2022-11-18T21:43:50.219Z,96215.31
2022-11-18T21:46:16.606Z,96217.63
2022-11-18T21:48:45.864Z,96221.31
2022-11-18T21:51:16.878Z,96221.03
2022-11-18T21:53:45.891Z,96228.41
2022-11-18T21:56:15.767Z,96213.72
2022-11-18T21:58:44.813Z,96221.31
2022-11-18T22:01:16.484Z,96218.69
2022-11-18T22:03:50.838Z,96219.59
2022-11-18T22:06:23.186Z,96224.25
2022-11-18T22:08:52.158Z,96211.78
2022-11-18T22:11:22.406Z,96222.97
2022-11-18T22:13:52.074Z,96218.03
2022-11-18T22:16:23.809Z,96221.94
2022-11-18T22:18:59.214Z,96221.78
2022-11-18T22:21:31.105Z,96227.19
2022-11-18T22:24:00.661Z,96224.78
2022-11-18T22:26:29.869Z,96231.03
2022-11-18T22:28:59.315Z,96229.91
2022-11-18T22:31:29.509Z,96235.47
2022-11-18T22:33:58.129Z,96236.97
2022-11-18T22:36:27.660Z,96242.09
2022-11-18T22:38:56.661Z,96256.22
2022-11-18T22:41:44.360Z,96253.72
2022-11-18T22:44:14.051Z,96256.38
2022-11-18T22:46:45.381Z,96258.03
2022-11-18T22:49:14.395Z,96259.53
2022-11-18T22:51:42.994Z,96258.41
2022-11-18T22:57:00.422Z,96255.09
2022-11-18T22:59:29.073Z,96257.88
2022-11-18T23:01:59.215Z,96254.56
2022-11-18T23:04:27.757Z,96253.06
2022-11-18T23:06:56.345Z,96252.22
2022-11-18T23:09:24.839Z,96251.56
2022-11-18T23:12:10.944Z,96250.03
2022-11-18T23:14:39.448Z,96254.78
2022-11-18T23:17:09.371Z,96258.53
2022-11-18T23:19:42.014Z,96259.00
2022-11-18T23:22:10.931Z,96269.22
2022-11-18T23:24:39.528Z,96265.25
2022-11-18T23:27:08.154Z,96270.50
2022-11-18T23:29:36.832Z,96262.06
2022-11-18T23:32:05.851Z,96268.75
2022-11-18T23:34:35.772Z,96266.81
2022-11-18T23:37:04.323Z,96265.38
2022-11-18T23:39:32.799Z,96272.00
2022-11-18T23:42:01.315Z,96271.19
2022-11-18T23:44:50.173Z,96276.75
2022-11-18T23:47:18.721Z,96281.84
2022-11-18T23:49:48.589Z,96282.06
2022-11-18T23:52:17.484Z,96272.06
2022-11-18T23:54:46.116Z,96273.72
2022-11-18T23:57:14.638Z,96278.63
2022-11-18T23:59:43.236Z,96282.50
